sensor_id;sensor_type;location;lat;lon;timestamp;temperature;humidity
36280;DHT22;22317;47.936;12.742;2023-06-26T00:00:41;15.10;44.50
36280;DHT22;22317;47.936;12.742;2023-06-26T00:03:07;15.10;44.60
36280;DHT22;22317;47.936;12.742;2023-06-26T00:05:32;15.00;44.70
36280;DHT22;22317;47.936;12.742;2023-06-26T00:07:58;15.00;44.70
36280;DHT22;22317;47.936;12.742;2023-06-26T00:10:27;15.00;44.70
36280;DHT22;22317;47.936;12.742;2023-06-26T00:12:53;14.90;44.90
36280;DHT22;22317;47.936;12.742;2023-06-26T00:15:20;14.90;45.00
36280;DHT22;22317;47.936;12.742;2023-06-26T00:17:46;14.90;45.00
36280;DHT22;22317;47.936;12.742;2023-06-26T00:20:11;14.80;45.00
36280;DHT22;22317;47.936;12.742;2023-06-26T00:22:39;14.80;45.00
36280;DHT22;22317;47.936;12.742;2023-06-26T00:25:08;14.80;45.10
36280;DHT22;22317;47.936;12.742;2023-06-26T00:27:34;14.70;45.00
36280;DHT22;22317;47.936;12.742;2023-06-26T00:29:59;14.70;45.20
36280;DHT22;22317;47.936;12.742;2023-06-26T00:32:25;14.70;46.00
36280;DHT22;22317;47.936;12.742;2023-06-26T00:34:51;14.70;45.30
36280;DHT22;22317;47.936;12.742;2023-06-26T00:37:17;14.60;45.30
36280;DHT22;22317;47.936;12.742;2023-06-26T00:39:43;14.60;45.30
36280;DHT22;22317;47.936;12.742;2023-06-26T00:42:09;14.50;45.20
36280;DHT22;22317;47.936;12.742;2023-06-26T00:44:35;14.50;45.40
36280;DHT22;22317;47.936;12.742;2023-06-26T00:47:01;14.50;45.50
36280;DHT22;22317;47.936;12.742;2023-06-26T00:49:27;14.40;45.50
36280;DHT22;22317;47.936;12.742;2023-06-26T00:51:53;14.40;45.70
36280;DHT22;22317;47.936;12.742;2023-06-26T00:54:19;14.30;45.70
36280;DHT22;22317;47.936;12.742;2023-06-26T00:56:48;14.20;45.80
36280;DHT22;22317;47.936;12.742;2023-06-26T00:59:14;14.20;46.00
36280;DHT22;22317;47.936;12.742;2023-06-26T01:01:40;14.20;46.00
36280;DHT22;22317;47.936;12.742;2023-06-26T01:04:08;14.20;46.20
36280;DHT22;22317;47.936;12.742;2023-06-26T01:06:50;14.10;46.20
36280;DHT22;22317;47.936;12.742;2023-06-26T01:09:21;14.20;46.50
36280;DHT22;22317;47.936;12.742;2023-06-26T01:11:50;14.10;46.50
36280;DHT22;22317;47.936;12.742;2023-06-26T01:14:15;14.10;46.50
36280;DHT22;22317;47.936;12.742;2023-06-26T01:16:43;14.10;46.60
36280;DHT22;22317;47.936;12.742;2023-06-26T01:19:27;14.00;46.50
36280;DHT22;22317;47.936;12.742;2023-06-26T01:24:35;14.00;47.30
36280;DHT22;22317;47.936;12.742;2023-06-26T01:27:04;14.00;46.70
36280;DHT22;22317;47.936;12.742;2023-06-26T01:29:31;14.00;46.60
36280;DHT22;22317;47.936;12.742;2023-06-26T01:31:59;14.00;46.70
36280;DHT22;22317;47.936;12.742;2023-06-26T01:34:27;14.00;46.70
36280;DHT22;22317;47.936;12.742;2023-06-26T01:36:54;14.00;46.70
36280;DHT22;22317;47.936;12.742;2023-06-26T01:39:19;14.00;46.90
36280;DHT22;22317;47.936;12.742;2023-06-26T01:41:46;13.90;46.60
36280;DHT22;22317;47.936;12.742;2023-06-26T01:44:23;13.80;46.60
36280;DHT22;22317;47.936;12.742;2023-06-26T01:47:01;13.80;46.90
36280;DHT22;22317;47.936;12.742;2023-06-26T01:49:50;13.70;46.90
36280;DHT22;22317;47.936;12.742;2023-06-26T01:52:36;13.60;47.20
36280;DHT22;22317;47.936;12.742;2023-06-26T01:55:19;13.60;47.20
36280;DHT22;22317;47.936;12.742;2023-06-26T01:57:47;13.50;47.20
36280;DHT22;22317;47.936;12.742;2023-06-26T02:00:17;13.50;47.30
36280;DHT22;22317;47.936;12.742;2023-06-26T02:02:44;13.50;47.50
36280;DHT22;22317;47.936;12.742;2023-06-26T02:05:13;13.40;47.60
36280;DHT22;22317;47.936;12.742;2023-06-26T02:07:39;13.40;47.70
36280;DHT22;22317;47.936;12.742;2023-06-26T02:10:06;13.40;47.70
36280;DHT22;22317;47.936;12.742;2023-06-26T02:12:34;13.40;47.80
36280;DHT22;22317;47.936;12.742;2023-06-26T02:15:00;13.30;47.80
36280;DHT22;22317;47.936;12.742;2023-06-26T02:17:26;13.30;47.80
36280;DHT22;22317;47.936;12.742;2023-06-26T02:19:54;13.30;47.90
36280;DHT22;22317;47.936;12.742;2023-06-26T02:22:20;13.30;48.00
36280;DHT22;22317;47.936;12.742;2023-06-26T02:24:47;13.30;48.00
36280;DHT22;22317;47.936;12.742;2023-06-26T02:27:13;13.30;48.00
36280;DHT22;22317;47.936;12.742;2023-06-26T02:29:39;13.30;48.00
36280;DHT22;22317;47.936;12.742;2023-06-26T02:32:07;13.30;47.90
36280;DHT22;22317;47.936;12.742;2023-06-26T02:34:34;13.20;48.50
36280;DHT22;22317;47.936;12.742;2023-06-26T02:37:00;13.20;48.00
36280;DHT22;22317;47.936;12.742;2023-06-26T02:39:27;13.20;48.10
36280;DHT22;22317;47.936;12.742;2023-06-26T02:41:53;13.20;48.10
36280;DHT22;22317;47.936;12.742;2023-06-26T02:44:20;13.20;48.30
36280;DHT22;22317;47.936;12.742;2023-06-26T02:46:46;13.20;48.30
36280;DHT22;22317;47.936;12.742;2023-06-26T02:49:12;13.20;48.30
36280;DHT22;22317;47.936;12.742;2023-06-26T02:51:38;13.20;48.30
36280;DHT22;22317;47.936;12.742;2023-06-26T02:54:11;13.20;48.30
36280;DHT22;22317;47.936;12.742;2023-06-26T02:56:37;13.20;48.20
36280;DHT22;22317;47.936;12.742;2023-06-26T02:59:03;13.20;48.20
36280;DHT22;22317;47.936;12.742;2023-06-26T03:01:29;13.10;48.30
36280;DHT22;22317;47.936;12.742;2023-06-26T03:03:55;13.20;48.40
36280;DHT22;22317;47.936;12.742;2023-06-26T03:06:21;13.00;48.30
36280;DHT22;22317;47.936;12.742;2023-06-26T03:08:47;13.10;48.40
36280;DHT22;22317;47.936;12.742;2023-06-26T03:11:14;13.10;48.40
36280;DHT22;22317;47.936;12.742;2023-06-26T03:13:40;13.00;48.40
36280;DHT22;22317;47.936;12.742;2023-06-26T03:16:06;13.00;48.50
36280;DHT22;22317;47.936;12.742;2023-06-26T03:18:32;12.90;48.50
36280;DHT22;22317;47.936;12.742;2023-06-26T03:20:58;12.90;48.50
36280;DHT22;22317;47.936;12.742;2023-06-26T03:23:25;12.90;48.50
36280;DHT22;22317;47.936;12.742;2023-06-26T03:25:51;12.80;48.40
36280;DHT22;22317;47.936;12.742;2023-06-26T03:28:26;12.80;48.40
36280;DHT22;22317;47.936;12.742;2023-06-26T03:30:52;12.80;48.40
36280;DHT22;22317;47.936;12.742;2023-06-26T03:33:18;12.80;48.30
36280;DHT22;22317;47.936;12.742;2023-06-26T03:35:44;12.80;48.30
36280;DHT22;22317;47.936;12.742;2023-06-26T03:38:12;12.80;48.30
36280;DHT22;22317;47.936;12.742;2023-06-26T03:40:39;12.80;48.40
36280;DHT22;22317;47.936;12.742;2023-06-26T03:43:05;12.80;48.40
36280;DHT22;22317;47.936;12.742;2023-06-26T03:45:41;12.80;48.40
36280;DHT22;22317;47.936;12.742;2023-06-26T03:48:07;12.80;48.40
36280;DHT22;22317;47.936;12.742;2023-06-26T03:50:35;12.80;48.40
36280;DHT22;22317;47.936;12.742;2023-06-26T03:53:02;12.80;48.30
36280;DHT22;22317;47.936;12.742;2023-06-26T03:55:27;12.80;48.50
36280;DHT22;22317;47.936;12.742;2023-06-26T03:57:53;12.80;48.60
36280;DHT22;22317;47.936;12.742;2023-06-26T04:00:19;12.80;48.50
36280;DHT22;22317;47.936;12.742;2023-06-26T04:02:45;12.80;48.40
36280;DHT22;22317;47.936;12.742;2023-06-26T04:05:11;12.80;48.50
36280;DHT22;22317;47.936;12.742;2023-06-26T04:07:38;12.80;48.50
36280;DHT22;22317;47.936;12.742;2023-06-26T04:10:05;12.90;48.60
36280;DHT22;22317;47.936;12.742;2023-06-26T04:12:32;12.90;48.60
36280;DHT22;22317;47.936;12.742;2023-06-26T04:14:58;13.00;48.70
36280;DHT22;22317;47.936;12.742;2023-06-26T04:17:24;13.10;48.60
36280;DHT22;22317;47.936;12.742;2023-06-26T04:19:50;13.10;48.60
36280;DHT22;22317;47.936;12.742;2023-06-26T04:22:15;13.20;48.60
36280;DHT22;22317;47.936;12.742;2023-06-26T04:24:41;13.30;48.60
36280;DHT22;22317;47.936;12.742;2023-06-26T04:27:07;13.30;48.50
36280;DHT22;22317;47.936;12.742;2023-06-26T04:29:32;13.40;48.50
36280;DHT22;22317;47.936;12.742;2023-06-26T04:31:58;13.40;48.40
36280;DHT22;22317;47.936;12.742;2023-06-26T04:34:25;13.50;48.40
36280;DHT22;22317;47.936;12.742;2023-06-26T04:36:51;13.60;48.50
36280;DHT22;22317;47.936;12.742;2023-06-26T04:39:17;13.60;48.70
36280;DHT22;22317;47.936;12.742;2023-06-26T04:41:44;13.70;48.40
36280;DHT22;22317;47.936;12.742;2023-06-26T04:44:10;13.80;48.40
36280;DHT22;22317;47.936;12.742;2023-06-26T04:46:36;13.90;48.30
36280;DHT22;22317;47.936;12.742;2023-06-26T04:49:02;13.90;48.20
36280;DHT22;22317;47.936;12.742;2023-06-26T04:51:28;14.00;48.20
36280;DHT22;22317;47.936;12.742;2023-06-26T04:53:54;14.10;48.20
36280;DHT22;22317;47.936;12.742;2023-06-26T04:56:20;14.10;48.20
36280;DHT22;22317;47.936;12.742;2023-06-26T04:58:46;14.20;48.30
36280;DHT22;22317;47.936;12.742;2023-06-26T05:01:12;14.40;48.30
36280;DHT22;22317;47.936;12.742;2023-06-26T05:03:39;14.40;48.30
36280;DHT22;22317;47.936;12.742;2023-06-26T05:06:05;14.60;48.20
36280;DHT22;22317;47.936;12.742;2023-06-26T05:08:31;14.70;48.20
36280;DHT22;22317;47.936;12.742;2023-06-26T05:10:57;14.70;48.10
36280;DHT22;22317;47.936;12.742;2023-06-26T05:13:25;14.90;48.20
36280;DHT22;22317;47.936;12.742;2023-06-26T05:15:52;15.00;48.10
36280;DHT22;22317;47.936;12.742;2023-06-26T05:18:18;15.10;48.10
36280;DHT22;22317;47.936;12.742;2023-06-26T05:20:44;15.20;48.40
36280;DHT22;22317;47.936;12.742;2023-06-26T05:23:13;15.30;48.60
36280;DHT22;22317;47.936;12.742;2023-06-26T05:25:41;15.40;48.80
36280;DHT22;22317;47.936;12.742;2023-06-26T05:28:07;15.50;48.70
36280;DHT22;22317;47.936;12.742;2023-06-26T05:30:36;15.60;48.80
36280;DHT22;22317;47.936;12.742;2023-06-26T05:33:02;15.80;48.90
36280;DHT22;22317;47.936;12.742;2023-06-26T05:35:30;15.90;48.90
36280;DHT22;22317;47.936;12.742;2023-06-26T05:37:57;16.00;48.90
36280;DHT22;22317;47.936;12.742;2023-06-26T05:40:23;16.10;49.00
36280;DHT22;22317;47.936;12.742;2023-06-26T05:42:49;16.20;49.20
36280;DHT22;22317;47.936;12.742;2023-06-26T05:45:15;16.30;49.20
36280;DHT22;22317;47.936;12.742;2023-06-26T05:47:41;16.40;49.30
36280;DHT22;22317;47.936;12.742;2023-06-26T05:50:09;16.50;49.40
36280;DHT22;22317;47.936;12.742;2023-06-26T05:52:36;16.50;49.30
36280;DHT22;22317;47.936;12.742;2023-06-26T05:55:04;16.60;49.40
36280;DHT22;22317;47.936;12.742;2023-06-26T05:57:30;16.70;49.50
36280;DHT22;22317;47.936;12.742;2023-06-26T05:59:57;16.80;49.50
36280;DHT22;22317;47.936;12.742;2023-06-26T06:02:22;16.80;49.50
36280;DHT22;22317;47.936;12.742;2023-06-26T06:04:48;16.90;49.80
36280;DHT22;22317;47.936;12.742;2023-06-26T06:07:14;16.90;49.80
36280;DHT22;22317;47.936;12.742;2023-06-26T06:09:40;17.10;49.90
36280;DHT22;22317;47.936;12.742;2023-06-26T06:12:07;17.20;49.70
36280;DHT22;22317;47.936;12.742;2023-06-26T06:14:34;17.20;49.40
36280;DHT22;22317;47.936;12.742;2023-06-26T06:17:00;17.30;49.30
36280;DHT22;22317;47.936;12.742;2023-06-26T06:19:26;17.40;49.20
36280;DHT22;22317;47.936;12.742;2023-06-26T06:21:52;17.40;49.10
36280;DHT22;22317;47.936;12.742;2023-06-26T06:24:19;17.50;49.00
36280;DHT22;22317;47.936;12.742;2023-06-26T06:26:45;17.60;48.90
36280;DHT22;22317;47.936;12.742;2023-06-26T06:29:11;17.70;48.80
36280;DHT22;22317;47.936;12.742;2023-06-26T06:31:36;17.90;48.60
36280;DHT22;22317;47.936;12.742;2023-06-26T06:34:02;17.90;48.50
36280;DHT22;22317;47.936;12.742;2023-06-26T06:36:28;18.00;48.30
36280;DHT22;22317;47.936;12.742;2023-06-26T06:38:54;18.10;48.30
36280;DHT22;22317;47.936;12.742;2023-06-26T06:41:20;18.20;48.10
36280;DHT22;22317;47.936;12.742;2023-06-26T06:43:46;18.30;48.20
36280;DHT22;22317;47.936;12.742;2023-06-26T06:46:12;18.40;48.10
36280;DHT22;22317;47.936;12.742;2023-06-26T06:48:37;18.50;47.90
36280;DHT22;22317;47.936;12.742;2023-06-26T06:51:03;18.60;47.80
36280;DHT22;22317;47.936;12.742;2023-06-26T06:53:30;18.70;47.50
36280;DHT22;22317;47.936;12.742;2023-06-26T06:55:56;18.90;47.40
36280;DHT22;22317;47.936;12.742;2023-06-26T06:58:22;19.00;47.40
36280;DHT22;22317;47.936;12.742;2023-06-26T07:00:50;19.10;47.10
36280;DHT22;22317;47.936;12.742;2023-06-26T07:03:17;19.20;47.00
36280;DHT22;22317;47.936;12.742;2023-06-26T07:05:44;19.30;46.90
36280;DHT22;22317;47.936;12.742;2023-06-26T07:08:09;19.40;46.80
36280;DHT22;22317;47.936;12.742;2023-06-26T07:10:35;19.50;46.80
36280;DHT22;22317;47.936;12.742;2023-06-26T07:13:01;19.60;46.50
36280;DHT22;22317;47.936;12.742;2023-06-26T07:15:27;19.70;46.20
36280;DHT22;22317;47.936;12.742;2023-06-26T07:17:53;19.80;46.80
36280;DHT22;22317;47.936;12.742;2023-06-26T07:20:19;19.80;46.00
36280;DHT22;22317;47.936;12.742;2023-06-26T07:22:44;19.90;45.80
36280;DHT22;22317;47.936;12.742;2023-06-26T07:25:11;20.00;45.70
36280;DHT22;22317;47.936;12.742;2023-06-26T07:27:37;20.10;45.60
36280;DHT22;22317;47.936;12.742;2023-06-26T07:30:04;20.20;45.70
36280;DHT22;22317;47.936;12.742;2023-06-26T07:32:30;20.40;45.50
36280;DHT22;22317;47.936;12.742;2023-06-26T07:34:56;20.50;45.30
36280;DHT22;22317;47.936;12.742;2023-06-26T07:37:21;20.60;45.10
36280;DHT22;22317;47.936;12.742;2023-06-26T07:39:48;20.70;45.00
36280;DHT22;22317;47.936;12.742;2023-06-26T07:42:14;20.80;44.80
36280;DHT22;22317;47.936;12.742;2023-06-26T07:44:42;20.90;44.50
36280;DHT22;22317;47.936;12.742;2023-06-26T07:47:08;21.10;44.30
36280;DHT22;22317;47.936;12.742;2023-06-26T07:49:33;21.20;44.20
36280;DHT22;22317;47.936;12.742;2023-06-26T07:51:59;21.30;43.80
36280;DHT22;22317;47.936;12.742;2023-06-26T07:54:25;21.40;43.50
36280;DHT22;22317;47.936;12.742;2023-06-26T07:56:59;21.60;43.30
36280;DHT22;22317;47.936;12.742;2023-06-26T07:59:26;21.70;42.90
36280;DHT22;22317;47.936;12.742;2023-06-26T08:01:53;21.80;42.90
36280;DHT22;22317;47.936;12.742;2023-06-26T08:04:20;21.90;43.30
36280;DHT22;22317;47.936;12.742;2023-06-26T08:06:51;22.00;42.40
36280;DHT22;22317;47.936;12.742;2023-06-26T08:09:19;22.10;42.20
36280;DHT22;22317;47.936;12.742;2023-06-26T08:11:45;22.30;42.00
36280;DHT22;22317;47.936;12.742;2023-06-26T08:14:11;22.40;41.50
36280;DHT22;22317;47.936;12.742;2023-06-26T08:16:41;22.50;41.10
36280;DHT22;22317;47.936;12.742;2023-06-26T08:19:08;22.60;40.80
36280;DHT22;22317;47.936;12.742;2023-06-26T08:21:34;22.80;40.50
36280;DHT22;22317;47.936;12.742;2023-06-26T08:23:59;22.90;40.00
36280;DHT22;22317;47.936;12.742;2023-06-26T08:26:25;23.00;39.60
36280;DHT22;22317;47.936;12.742;2023-06-26T08:28:51;23.20;39.20
36280;DHT22;22317;47.936;12.742;2023-06-26T08:31:17;23.20;38.80
36280;DHT22;22317;47.936;12.742;2023-06-26T08:33:43;23.30;38.80
36280;DHT22;22317;47.936;12.742;2023-06-26T08:36:09;23.40;38.70
36280;DHT22;22317;47.936;12.742;2023-06-26T08:38:35;23.50;38.50
36280;DHT22;22317;47.936;12.742;2023-06-26T08:41:01;23.70;38.50
36280;DHT22;22317;47.936;12.742;2023-06-26T08:43:27;23.70;38.20
36280;DHT22;22317;47.936;12.742;2023-06-26T08:45:53;23.90;37.90
36280;DHT22;22317;47.936;12.742;2023-06-26T08:48:21;24.10;37.80
36280;DHT22;22317;47.936;12.742;2023-06-26T08:50:52;24.20;37.60
36280;DHT22;22317;47.936;12.742;2023-06-26T08:53:48;24.30;37.30
36280;DHT22;22317;47.936;12.742;2023-06-26T08:56:17;24.50;37.20
36280;DHT22;22317;47.936;12.742;2023-06-26T08:58:44;24.60;37.30
36280;DHT22;22317;47.936;12.742;2023-06-26T09:01:11;24.70;37.30
36280;DHT22;22317;47.936;12.742;2023-06-26T09:03:38;24.80;37.10
36280;DHT22;22317;47.936;12.742;2023-06-26T09:06:04;24.90;36.70
36280;DHT22;22317;47.936;12.742;2023-06-26T09:08:29;25.10;36.70
36280;DHT22;22317;47.936;12.742;2023-06-26T09:10:55;25.10;36.50
36280;DHT22;22317;47.936;12.742;2023-06-26T09:13:21;25.30;36.20
36280;DHT22;22317;47.936;12.742;2023-06-26T09:15:47;25.40;35.60
36280;DHT22;22317;47.936;12.742;2023-06-26T09:18:13;25.50;35.40
36280;DHT22;22317;47.936;12.742;2023-06-26T09:20:42;25.70;35.30
36280;DHT22;22317;47.936;12.742;2023-06-26T09:23:08;25.80;35.00
36280;DHT22;22317;47.936;12.742;2023-06-26T09:25:38;26.00;34.90
36280;DHT22;22317;47.936;12.742;2023-06-26T09:28:05;26.20;34.70
36280;DHT22;22317;47.936;12.742;2023-06-26T09:30:34;26.30;34.70
36280;DHT22;22317;47.936;12.742;2023-06-26T09:33:16;26.50;34.00
36280;DHT22;22317;47.936;12.742;2023-06-26T09:35:44;26.70;33.70
36280;DHT22;22317;47.936;12.742;2023-06-26T09:38:10;26.80;33.80
36280;DHT22;22317;47.936;12.742;2023-06-26T09:40:36;26.80;33.40
36280;DHT22;22317;47.936;12.742;2023-06-26T09:43:07;26.90;32.50
36280;DHT22;22317;47.936;12.742;2023-06-26T09:45:34;27.10;31.70
36280;DHT22;22317;47.936;12.742;2023-06-26T09:48:05;27.10;31.60
36280;DHT22;22317;47.936;12.742;2023-06-26T09:50:33;27.10;31.40
36280;DHT22;22317;47.936;12.742;2023-06-26T09:53:13;27.20;31.10
36280;DHT22;22317;47.936;12.742;2023-06-26T09:55:39;27.20;30.60
36280;DHT22;22317;47.936;12.742;2023-06-26T09:58:13;27.20;31.10
36280;DHT22;22317;47.936;12.742;2023-06-26T10:00:41;27.20;30.40
36280;DHT22;22317;47.936;12.742;2023-06-26T10:03:07;27.30;30.50
36280;DHT22;22317;47.936;12.742;2023-06-26T10:05:33;27.40;30.60
36280;DHT22;22317;47.936;12.742;2023-06-26T10:08:00;27.50;30.20
36280;DHT22;22317;47.936;12.742;2023-06-26T10:10:27;27.60;29.70
36280;DHT22;22317;47.936;12.742;2023-06-26T10:13:00;27.60;29.40
36280;DHT22;22317;47.936;12.742;2023-06-26T10:15:27;27.60;29.10
36280;DHT22;22317;47.936;12.742;2023-06-26T10:17:56;27.60;29.30
36280;DHT22;22317;47.936;12.742;2023-06-26T10:20:23;27.70;29.50
36280;DHT22;22317;47.936;12.742;2023-06-26T10:22:49;27.70;29.40
36280;DHT22;22317;47.936;12.742;2023-06-26T10:25:18;27.80;29.20
36280;DHT22;22317;47.936;12.742;2023-06-26T10:27:52;27.90;28.90
36280;DHT22;22317;47.936;12.742;2023-06-26T10:30:22;27.90;28.70
36280;DHT22;22317;47.936;12.742;2023-06-26T10:32:50;28.00;28.40
36280;DHT22;22317;47.936;12.742;2023-06-26T10:35:16;27.90;28.40
36280;DHT22;22317;47.936;12.742;2023-06-26T10:37:47;27.90;28.40
36280;DHT22;22317;47.936;12.742;2023-06-26T10:40:25;28.00;28.20
36280;DHT22;22317;47.936;12.742;2023-06-26T10:42:51;28.10;28.20
36280;DHT22;22317;47.936;12.742;2023-06-26T10:45:20;28.10;28.40
36280;DHT22;22317;47.936;12.742;2023-06-26T10:47:47;28.20;28.20
36280;DHT22;22317;47.936;12.742;2023-06-26T10:50:27;28.30;28.30
36280;DHT22;22317;47.936;12.742;2023-06-26T10:56:00;28.50;27.80
36280;DHT22;22317;47.936;12.742;2023-06-26T11:03:37;28.60;27.40
36280;DHT22;22317;47.936;12.742;2023-06-26T11:06:20;28.60;27.60
36280;DHT22;22317;47.936;12.742;2023-06-26T11:09:00;28.60;27.90
36280;DHT22;22317;47.936;12.742;2023-06-26T11:14:31;28.90;27.60
36280;DHT22;22317;47.936;12.742;2023-06-26T11:16:58;29.10;27.90
36280;DHT22;22317;47.936;12.742;2023-06-26T11:19:26;29.20;27.40
36280;DHT22;22317;47.936;12.742;2023-06-26T11:21:56;29.20;27.20
36280;DHT22;22317;47.936;12.742;2023-06-26T11:24:23;29.30;27.30
36280;DHT22;22317;47.936;12.742;2023-06-26T11:26:49;29.40;27.00
36280;DHT22;22317;47.936;12.742;2023-06-26T11:29:15;29.40;27.20
36280;DHT22;22317;47.936;12.742;2023-06-26T11:31:42;29.50;27.00
36280;DHT22;22317;47.936;12.742;2023-06-26T11:34:12;29.40;26.90
36280;DHT22;22317;47.936;12.742;2023-06-26T11:36:39;29.40;26.80
36280;DHT22;22317;47.936;12.742;2023-06-26T11:39:07;29.20;26.70
36280;DHT22;22317;47.936;12.742;2023-06-26T11:41:35;29.10;26.70
36280;DHT22;22317;47.936;12.742;2023-06-26T11:44:11;29.20;27.10
36280;DHT22;22317;47.936;12.742;2023-06-26T11:46:37;29.30;27.10
36280;DHT22;22317;47.936;12.742;2023-06-26T11:49:04;29.50;27.10
36280;DHT22;22317;47.936;12.742;2023-06-26T11:51:30;29.60;26.90
36280;DHT22;22317;47.936;12.742;2023-06-26T11:53:56;29.70;26.80
36280;DHT22;22317;47.936;12.742;2023-06-26T11:56:22;29.80;27.00
36280;DHT22;22317;47.936;12.742;2023-06-26T11:59:04;29.90;27.20
36280;DHT22;22317;47.936;12.742;2023-06-26T12:01:43;30.10;27.30
36280;DHT22;22317;47.936;12.742;2023-06-26T12:04:14;30.20;27.20
36280;DHT22;22317;47.936;12.742;2023-06-26T12:06:43;30.40;27.00
36280;DHT22;22317;47.936;12.742;2023-06-26T12:09:11;30.40;26.60
36280;DHT22;22317;47.936;12.742;2023-06-26T12:11:42;30.40;26.40
36280;DHT22;22317;47.936;12.742;2023-06-26T12:14:09;30.40;26.30
36280;DHT22;22317;47.936;12.742;2023-06-26T12:16:36;30.50;26.60
36280;DHT22;22317;47.936;12.742;2023-06-26T12:19:05;30.60;26.80
36280;DHT22;22317;47.936;12.742;2023-06-26T12:24:04;31.00;26.80
36280;DHT22;22317;47.936;12.742;2023-06-26T12:26:31;31.20;27.00
36280;DHT22;22317;47.936;12.742;2023-06-26T12:29:06;31.40;26.60
36280;DHT22;22317;47.936;12.742;2023-06-26T12:31:32;31.60;26.50
36280;DHT22;22317;47.936;12.742;2023-06-26T12:33:59;31.70;26.20
36280;DHT22;22317;47.936;12.742;2023-06-26T12:36:25;31.80;26.10
36280;DHT22;22317;47.936;12.742;2023-06-26T12:38:53;31.90;25.90
36280;DHT22;22317;47.936;12.742;2023-06-26T12:41:19;31.90;25.70
36280;DHT22;22317;47.936;12.742;2023-06-26T12:43:48;31.90;25.60
36280;DHT22;22317;47.936;12.742;2023-06-26T12:46:14;31.80;25.60
36280;DHT22;22317;47.936;12.742;2023-06-26T12:48:41;31.60;25.30
36280;DHT22;22317;47.936;12.742;2023-06-26T12:51:14;31.40;25.30
36280;DHT22;22317;47.936;12.742;2023-06-26T12:53:40;31.30;25.30
36280;DHT22;22317;47.936;12.742;2023-06-26T12:56:07;31.20;25.40
36280;DHT22;22317;47.936;12.742;2023-06-26T12:58:34;31.10;25.40
36280;DHT22;22317;47.936;12.742;2023-06-26T13:01:04;31.00;25.50
36280;DHT22;22317;47.936;12.742;2023-06-26T13:03:31;30.80;25.60
36280;DHT22;22317;47.936;12.742;2023-06-26T13:05:57;30.80;25.70
36280;DHT22;22317;47.936;12.742;2023-06-26T13:08:23;30.70;25.80
36280;DHT22;22317;47.936;12.742;2023-06-26T13:10:49;30.80;25.90
36280;DHT22;22317;47.936;12.742;2023-06-26T13:13:14;30.80;25.80
36280;DHT22;22317;47.936;12.742;2023-06-26T13:15:40;30.80;25.50
36280;DHT22;22317;47.936;12.742;2023-06-26T13:18:06;30.70;25.20
36280;DHT22;22317;47.936;12.742;2023-06-26T13:20:32;30.50;25.20
36280;DHT22;22317;47.936;12.742;2023-06-26T13:22:57;30.30;25.20
36280;DHT22;22317;47.936;12.742;2023-06-26T13:25:23;30.20;25.20
36280;DHT22;22317;47.936;12.742;2023-06-26T13:27:49;30.00;25.00
36280;DHT22;22317;47.936;12.742;2023-06-26T13:30:15;29.80;25.30
36280;DHT22;22317;47.936;12.742;2023-06-26T13:32:41;29.80;25.70
36280;DHT22;22317;47.936;12.742;2023-06-26T13:35:08;29.80;25.80
36280;DHT22;22317;47.936;12.742;2023-06-26T13:37:35;29.90;25.80
36280;DHT22;22317;47.936;12.742;2023-06-26T13:40:02;30.10;25.90
36280;DHT22;22317;47.936;12.742;2023-06-26T13:42:29;30.30;25.80
36280;DHT22;22317;47.936;12.742;2023-06-26T13:44:55;30.50;25.90
36280;DHT22;22317;47.936;12.742;2023-06-26T13:47:21;30.70;25.80
36280;DHT22;22317;47.936;12.742;2023-06-26T13:49:47;30.70;25.80
36280;DHT22;22317;47.936;12.742;2023-06-26T13:52:12;30.80;25.50
36280;DHT22;22317;47.936;12.742;2023-06-26T13:54:38;30.80;25.80
36280;DHT22;22317;47.936;12.742;2023-06-26T13:57:06;30.80;25.10
36280;DHT22;22317;47.936;12.742;2023-06-26T13:59:32;30.80;24.90
36280;DHT22;22317;47.936;12.742;2023-06-26T14:01:58;30.70;24.90
36280;DHT22;22317;47.936;12.742;2023-06-26T14:04:25;30.60;24.70
36280;DHT22;22317;47.936;12.742;2023-06-26T14:06:51;30.40;24.70
36280;DHT22;22317;47.936;12.742;2023-06-26T14:09:16;30.30;24.60
36280;DHT22;22317;47.936;12.742;2023-06-26T14:11:43;30.20;24.80
36280;DHT22;22317;47.936;12.742;2023-06-26T14:14:09;30.20;24.80
36280;DHT22;22317;47.936;12.742;2023-06-26T14:16:35;30.10;24.80
36280;DHT22;22317;47.936;12.742;2023-06-26T14:19:01;30.10;25.20
36280;DHT22;22317;47.936;12.742;2023-06-26T14:21:28;30.10;25.30
36280;DHT22;22317;47.936;12.742;2023-06-26T14:23:54;30.20;25.40
36280;DHT22;22317;47.936;12.742;2023-06-26T14:26:20;30.40;25.60
36280;DHT22;22317;47.936;12.742;2023-06-26T14:28:46;30.60;25.70
36280;DHT22;22317;47.936;12.742;2023-06-26T14:31:12;30.80;25.60
36280;DHT22;22317;47.936;12.742;2023-06-26T14:33:39;31.00;25.60
36280;DHT22;22317;47.936;12.742;2023-06-26T14:36:05;31.20;25.30
36280;DHT22;22317;47.936;12.742;2023-06-26T14:38:31;31.30;24.90
36280;DHT22;22317;47.936;12.742;2023-06-26T14:40:56;31.30;24.60
36280;DHT22;22317;47.936;12.742;2023-06-26T14:43:22;31.20;24.20
36280;DHT22;22317;47.936;12.742;2023-06-26T14:45:48;31.10;24.00
36280;DHT22;22317;47.936;12.742;2023-06-26T14:48:14;30.90;24.10
36280;DHT22;22317;47.936;12.742;2023-06-26T14:50:40;30.80;24.30
36280;DHT22;22317;47.936;12.742;2023-06-26T14:53:06;30.70;24.50
36280;DHT22;22317;47.936;12.742;2023-06-26T14:55:31;30.70;24.70
36280;DHT22;22317;47.936;12.742;2023-06-26T14:57:57;30.60;24.70
36280;DHT22;22317;47.936;12.742;2023-06-26T15:00:23;30.60;24.80
36280;DHT22;22317;47.936;12.742;2023-06-26T15:02:49;30.50;24.70
36280;DHT22;22317;47.936;12.742;2023-06-26T15:05:21;30.40;24.60
36280;DHT22;22317;47.936;12.742;2023-06-26T15:07:47;30.30;24.70
36280;DHT22;22317;47.936;12.742;2023-06-26T15:10:13;30.20;25.00
36280;DHT22;22317;47.936;12.742;2023-06-26T15:12:39;30.30;25.20
36280;DHT22;22317;47.936;12.742;2023-06-26T15:15:05;30.20;25.20
36280;DHT22;22317;47.936;12.742;2023-06-26T15:17:33;30.20;25.10
36280;DHT22;22317;47.936;12.742;2023-06-26T15:19:59;30.10;25.00
36280;DHT22;22317;47.936;12.742;2023-06-26T15:22:26;30.10;25.20
36280;DHT22;22317;47.936;12.742;2023-06-26T15:24:53;30.10;25.30
36280;DHT22;22317;47.936;12.742;2023-06-26T15:27:19;30.20;25.60
36280;DHT22;22317;47.936;12.742;2023-06-26T15:29:45;30.20;25.60
36280;DHT22;22317;47.936;12.742;2023-06-26T15:32:11;30.30;25.40